Terminal Aerodrome Forecast
Issued by NWS Wilmington, OH

Current Version | Previous Version | Text Only | Print | Product List | Glossary Off
Versions: 1 2 3 4 5 6 7 8 9 10 11 12 13 14 15 16

000
FTUS41 KILN 032300
TAFCMH
TAF
KCMH 032337Z 0400/0424 04004KT P6SM VCSH SCT012 BKN040
      TEMPO 0400/0402 -SHRA
     FM040600 35003KT P6SM SCT012 BKN040
      TEMPO 0408/0412 5SM BR
     FM041300 34005KT P6SM SKC
     FM041800 33007KT P6SM SCT050=

USA.gov is the U.S. government's official web portal to all federal, state and local government web resources and services.